Time;durP1;ratioP1;P1;durP2;ratioP2;P2;SDS_P1;SDS_P2;PMS_P1;PMS_P2;Temp;Humidity;BMP_temperature;BMP_pressure;BME280_temperature;BME280_humidity;BME280_pressure;Samples;Min_cycle;Max_cycle;Signal;HPM_P1;HPM_P2
2022/03/22 00:01:21;;;;;;;38.92;23.05;;;;;;;;;;4954226;28;92407;-78
2022/03/22 00:03:47;;;;;;;37.35;23.42;;;;;;;;;;4954651;28;93175;-78
2022/03/22 00:06:14;;;;;;;38.10;23.20;;;;;;;;;;4954323;28;93722;-78
2022/03/22 00:08:41;;;;;;;35.20;23.25;;;;;;;;;;4952586;28;92874;-77
2022/03/22 00:11:07;;;;;;;33.83;22.27;;;;;;;;;;4952451;28;94924;-78
2022/03/22 00:13:33;;;;;;;31.73;21.95;;;;;;;;;;4952885;28;93515;-78
2022/03/22 00:16:01;;;;;;;39.40;23.65;;;;;;;;;;4966326;28;93230;-78
2022/03/22 00:18:47;;;;;;;41.97;23.73;;;;;;;;;;4973733;28;95485;-78
2022/03/22 00:21:14;;;;;;;45.10;23.30;;;;;;;;;;4974084;28;92889;-78
2022/03/22 00:23:41;;;;;;;37.58;23.20;;;;;;;;;;4973795;28;93578;-78
2022/03/22 00:26:07;;;;;;;37.97;22.73;;;;;;;;;;4971928;28;93787;-78
2022/03/22 00:28:33;;;;;;;43.50;21.52;;;;;;;;;;4973987;28;91762;-77
2022/03/22 00:31:02;;;;;;;37.28;22.88;;;;;;;;;;4971698;28;93739;-78
2022/03/22 00:33:29;;;;;;;38.60;22.63;;;;;;;;;;4960038;28;93822;-76
2022/03/22 00:35:55;;;;;;;39.70;23.13;;;;;;;;;;4951156;28;95205;-77
2022/03/22 00:38:22;;;;;;;44.40;23.25;;;;;;;;;;4956660;28;95791;-77
2022/03/22 00:40:49;;;;;;;38.28;22.73;;;;;;;;;;4953398;28;92432;-77
2022/03/22 00:43:15;;;;;;;51.83;23.73;;;;;;;;;;4953511;28;93244;-77
2022/03/22 00:45:41;;;;;;;38.15;23.30;;;;;;;;;;4959695;28;93409;-77
2022/03/22 00:48:12;;;;;;;41.78;24.73;;;;;;;;;;4973455;28;92677;-78
2022/03/22 00:50:40;;;;;;;45.10;23.63;;;;;;;;;;4973477;28;92406;-77
2022/03/22 00:53:07;;;;;;;44.45;23.48;;;;;;;;;;4973508;28;92700;-76
2022/03/22 00:55:34;;;;;;;47.72;23.80;;;;;;;;;;4973280;28;92734;-77
2022/03/22 00:58:02;;;;;;;44.10;25.67;;;;;;;;;;4971748;28;93354;-77
2022/03/22 01:00:29;;;;;;;43.05;25.25;;;;;;;;;;4975006;28;98677;-76
2022/03/22 01:02:58;;;;;;;42.75;26.45;;;;;;;;;;4973103;28;95700;-77
2022/03/22 01:05:25;;;;;;;42.83;24.00;;;;;;;;;;4972479;28;93909;-77
2022/03/22 01:07:54;;;;;;;41.72;24.17;;;;;;;;;;4972685;28;92449;-77
2022/03/22 01:10:21;;;;;;;44.55;24.80;;;;;;;;;;4971916;28;93406;-77
2022/03/22 01:12:48;;;;;;;42.97;25.33;;;;;;;;;;4972622;28;93529;-77
2022/03/22 01:15:24;;;;;;;41.63;25.60;;;;;;;;;;4972574;28;92722;-77
2022/03/22 01:17:54;;;;;;;45.67;25.33;;;;;;;;;;4973495;28;93015;-77
2022/03/22 01:20:22;;;;;;;49.05;24.38;;;;;;;;;;4971613;28;93692;-77
2022/03/22 01:22:49;;;;;;;38.28;24.52;;;;;;;;;;4975110;28;92551;-78
2022/03/22 01:25:17;;;;;;;42.78;25.65;;;;;;;;;;4970402;28;96121;-78
2022/03/22 01:27:46;;;;;;;49.30;27.13;;;;;;;;;;4972969;28;92435;-78
2022/03/22 01:30:13;;;;;;;50.42;27.40;;;;;;;;;;4971415;28;93630;-78
2022/03/22 01:32:39;;;;;;;53.70;26.38;;;;;;;;;;4971415;28;93442;-78
2022/03/22 01:35:08;;;;;;;51.00;26.05;;;;;;;;;;4971272;28;92652;-78
2022/03/22 01:37:34;;;;;;;55.35;26.38;;;;;;;;;;4971095;28;93694;-78
2022/03/22 01:40:01;;;;;;;46.75;27.90;;;;;;;;;;4975067;28;93781;-78
2022/03/22 01:42:27;;;;;;;42.08;26.65;;;;;;;;;;4976496;28;91744;-77
2022/03/22 01:44:53;;;;;;;56.47;28.40;;;;;;;;;;4978716;28;92700;-76
2022/03/22 01:47:23;;;;;;;47.30;28.23;;;;;;;;;;4975747;28;92517;-77
2022/03/22 01:49:50;;;;;;;54.92;25.90;;;;;;;;;;4974370;28;94886;-78
2022/03/22 01:52:19;;;;;;;43.92;24.88;;;;;;;;;;4975840;28;93780;-77
2022/03/22 01:54:46;;;;;;;54.13;27.52;;;;;;;;;;4975440;28;92409;-77
2022/03/22 01:57:12;;;;;;;45.92;25.20;;;;;;;;;;4975621;28;92335;-77
2022/03/22 01:59:38;;;;;;;51.45;27.30;;;;;;;;;;4976112;28;95943;-78
2022/03/22 02:07:37;;;;;;;47.72;27.67;;;;;;;;;;4978741;28;92510;-78
2022/03/22 02:10:04;;;;;;;52.92;28.63;;;;;;;;;;4975837;28;92545;-78
2022/03/22 02:12:31;;;;;;;42.78;27.08;;;;;;;;;;4975857;28;93433;-78
2022/03/22 02:14:57;;;;;;;45.17;26.75;;;;;;;;;;4972931;28;94995;-77
2022/03/22 02:17:23;;;;;;;42.50;26.10;;;;;;;;;;4975484;28;95677;-77
2022/03/22 02:19:50;;;;;;;41.95;25.13;;;;;;;;;;4975252;28;92564;-77
2022/03/22 02:22:17;;;;;;;49.22;27.40;;;;;;;;;;4974279;28;92722;-78
2022/03/22 02:24:44;;;;;;;49.03;26.73;;;;;;;;;;4975679;28;92649;-78
2022/03/22 02:27:10;;;;;;;53.03;28.80;;;;;;;;;;4976936;28;93504;-78
2022/03/22 02:29:37;;;;;;;54.75;30.00;;;;;;;;;;4975514;28;93466;-78
2022/03/22 02:32:04;;;;;;;52.65;29.25;;;;;;;;;;4975621;28;93001;-78
2022/03/22 02:34:30;;;;;;;51.83;28.50;;;;;;;;;;4972625;28;93001;-78
2022/03/22 02:36:59;;;;;;;41.50;27.00;;;;;;;;;;4974607;28;93339;-77
2022/03/22 02:39:25;;;;;;;53.42;28.05;;;;;;;;;;4973397;28;96238;-77
2022/03/22 02:41:52;;;;;;;44.75;27.27;;;;;;;;;;4973899;28;92410;-77
2022/03/22 02:44:19;;;;;;;48.65;28.33;;;;;;;;;;4975237;28;93947;-77
2022/03/22 02:46:46;;;;;;;50.60;28.52;;;;;;;;;;4973495;28;93549;-77
2022/03/22 02:49:13;;;;;;;51.40;28.40;;;;;;;;;;4977985;28;93055;-77
2022/03/22 02:51:40;;;;;;;48.38;27.77;;;;;;;;;;4974623;28;93285;-78
2022/03/22 02:54:07;;;;;;;48.85;27.75;;;;;;;;;;4976237;28;92426;-78
2022/03/22 02:56:33;;;;;;;48.90;27.75;;;;;;;;;;4975619;28;93303;-78
2022/03/22 02:59:00;;;;;;;51.72;26.67;;;;;;;;;;4975437;28;95375;-78
2022/03/22 03:01:27;;;;;;;54.83;28.10;;;;;;;;;;4974990;28;92627;-78
2022/03/22 03:03:53;;;;;;;44.00;26.92;;;;;;;;;;4971840;28;94851;-77
2022/03/22 03:06:19;;;;;;;49.30;28.85;;;;;;;;;;4974955;28;92932;-78
2022/03/22 03:08:46;;;;;;;55.88;28.80;;;;;;;;;;4974120;28;92506;-78
2022/03/22 03:11:12;;;;;;;43.28;27.80;;;;;;;;;;4976518;28;93536;-78
2022/03/22 03:16:24;;;;;;;52.17;27.80;;;;;;;;;;4975107;28;93423;-78
2022/03/22 03:18:51;;;;;;;50.45;27.70;;;;;;;;;;4974802;28;95135;-78
2022/03/22 03:21:17;;;;;;;45.38;27.00;;;;;;;;;;4974602;28;91702;-77
2022/03/22 03:23:44;;;;;;;46.97;27.98;;;;;;;;;;4974547;28;92635;-78
2022/03/22 03:26:10;;;;;;;47.28;25.85;;;;;;;;;;4974738;28;93385;-78
2022/03/22 03:28:36;;;;;;;46.25;27.00;;;;;;;;;;4972763;28;94868;-78
2022/03/22 03:31:02;;;;;;;44.67;26.70;;;;;;;;;;4972847;28;95852;-78
2022/03/22 03:33:29;;;;;;;54.28;28.55;;;;;;;;;;4977741;28;92442;-78
2022/03/22 03:35:56;;;;;;;48.28;28.13;;;;;;;;;;4974543;28;96330;-78
2022/03/22 03:38:22;;;;;;;52.58;29.95;;;;;;;;;;4974436;28;93449;-78
2022/03/22 03:43:33;;;;;;;50.53;26.42;;;;;;;;;;4974051;28;93334;-78
2022/03/22 03:48:45;;;;;;;55.40;25.50;;;;;;;;;;4973963;28;92423;-78
2022/03/22 03:51:11;;;;;;;43.35;27.83;;;;;;;;;;4973068;28;95666;-78
2022/03/22 03:53:37;;;;;;;54.00;27.55;;;;;;;;;;4972584;28;95648;-78
2022/03/22 03:56:04;;;;;;;49.60;29.02;;;;;;;;;;4977083;28;92544;-78
2022/03/22 03:58:30;;;;;;;43.50;25.85;;;;;;;;;;4974159;28;93239;-78
2022/03/22 04:00:57;;;;;;;49.63;29.23;;;;;;;;;;4971783;28;92472;-78
2022/03/22 04:03:24;;;;;;;50.40;28.80;;;;;;;;;;4974048;28;93321;-78
2022/03/22 04:05:50;;;;;;;49.72;29.67;;;;;;;;;;4973361;28;93491;-78
2022/03/22 04:08:16;;;;;;;49.03;29.45;;;;;;;;;;4973569;28;92471;-78
2022/03/22 04:10:42;;;;;;;48.42;28.95;;;;;;;;;;4974800;28;93337;-78
2022/03/22 04:13:09;;;;;;;47.58;29.20;;;;;;;;;;4972128;28;93943;-78
2022/03/22 04:15:35;;;;;;;44.30;29.08;;;;;;;;;;4973868;28;92543;-78
2022/03/22 04:18:01;;;;;;;51.10;29.55;;;;;;;;;;4974963;28;95018;-78
2022/03/22 04:20:30;;;;;;;49.55;29.52;;;;;;;;;;4971806;28;92863;-77
2022/03/22 04:22:56;;;;;;;59.33;30.63;;;;;;;;;;4953612;28;93216;-78
2022/03/22 04:25:22;;;;;;;53.40;31.58;;;;;;;;;;4954171;28;93294;-77
2022/03/22 04:33:18;;;;;;;57.70;29.77;;;;;;;;;;4953663;28;94341;-78
2022/03/22 04:35:45;;;;;;;60.78;31.10;;;;;;;;;;4963857;28;91761;-78
2022/03/22 04:38:12;;;;;;;52.28;30.52;;;;;;;;;;4975961;28;92553;-78
2022/03/22 04:40:39;;;;;;;52.22;29.02;;;;;;;;;;4973358;28;92518;-78
2022/03/22 04:43:06;;;;;;;53.38;30.88;;;;;;;;;;4970409;28;94844;-78
2022/03/22 04:45:33;;;;;;;52.95;30.23;;;;;;;;;;4972987;28;93733;-78
2022/03/22 04:47:59;;;;;;;58.08;28.85;;;;;;;;;;4971752;28;92425;-78
2022/03/22 04:50:25;;;;;;;53.65;31.05;;;;;;;;;;4973590;28;94446;-78
2022/03/22 04:58:35;;;;;;;51.30;29.30;;;;;;;;;;4951507;28;93244;-78
2022/03/22 05:01:03;;;;;;;53.30;29.83;;;;;;;;;;4954302;28;92461;-78
2022/03/22 05:03:30;;;;;;;48.50;29.25;;;;;;;;;;4951034;28;92608;-78
2022/03/22 05:08:42;;;;;;;50.10;28.15;;;;;;;;;;4948539;28;95015;-78
2022/03/22 05:11:08;;;;;;;47.90;28.77;;;;;;;;;;4951095;28;95678;-78
2022/03/22 05:13:34;;;;;;;51.70;27.77;;;;;;;;;;4952460;28;93248;-78
2022/03/22 05:16:01;;;;;;;46.28;29.05;;;;;;;;;;4954588;28;92600;-78
2022/03/22 05:18:27;;;;;;;43.28;26.52;;;;;;;;;;4953918;28;93214;-78
2022/03/22 05:20:53;;;;;;;46.72;27.90;;;;;;;;;;4949037;28;93411;-76
2022/03/22 05:23:20;;;;;;;50.60;28.77;;;;;;;;;;4937876;28;92892;-78
2022/03/22 05:25:46;;;;;;;47.25;27.77;;;;;;;;;;4935396;28;92956;-78
2022/03/22 05:28:12;;;;;;;47.35;27.63;;;;;;;;;;4934651;28;92614;-78
2022/03/22 05:30:39;;;;;;;48.92;27.90;;;;;;;;;;4934883;28;93185;-78
2022/03/22 05:33:05;;;;;;;45.33;28.25;;;;;;;;;;4932693;28;96134;-77
2022/03/22 05:35:33;;;;;;;46.75;27.02;;;;;;;;;;4955105;28;92371;-77
2022/03/22 05:38:00;;;;;;;51.88;27.40;;;;;;;;;;4956283;28;93007;-78
2022/03/22 05:40:26;;;;;;;50.67;25.90;;;;;;;;;;4954919;28;93509;-78
2022/03/22 05:42:52;;;;;;;56.65;26.27;;;;;;;;;;4956431;28;92453;-76
2022/03/22 05:45:18;;;;;;;44.97;26.13;;;;;;;;;;4962703;28;93237;-77
2022/03/22 05:47:45;;;;;;;58.67;27.67;;;;;;;;;;4975042;28;94856;-77
2022/03/22 05:50:11;;;;;;;48.05;27.90;;;;;;;;;;4976125;28;93208;-78
2022/03/22 05:52:44;;;;;;;53.85;26.80;;;;;;;;;;4976255;28;93414;-78
2022/03/22 05:55:11;;;;;;;49.22;27.73;;;;;;;;;;4975740;28;92835;-78
2022/03/22 05:57:37;;;;;;;59.40;29.20;;;;;;;;;;4972766;28;94779;-78
2022/03/22 06:00:04;;;;;;;60.40;27.40;;;;;;;;;;4974065;28;92499;-78
2022/03/22 06:02:31;;;;;;;47.75;26.92;;;;;;;;;;4975904;28;92478;-78
2022/03/22 06:04:58;;;;;;;47.80;27.17;;;;;;;;;;4975542;28;93165;-78
2022/03/22 06:07:24;;;;;;;54.17;28.35;;;;;;;;;;4975963;28;93304;-78
2022/03/22 06:09:51;;;;;;;51.53;27.58;;;;;;;;;;4973218;28;93039;-78
2022/03/22 06:12:19;;;;;;;48.88;25.88;;;;;;;;;;4974274;28;93339;-78
2022/03/22 06:14:45;;;;;;;52.72;27.50;;;;;;;;;;4974857;28;92018;-78
2022/03/22 06:17:11;;;;;;;51.33;29.33;;;;;;;;;;4972943;28;94057;-78
2022/03/22 06:19:38;;;;;;;50.25;27.10;;;;;;;;;;4972935;28;93607;-78
2022/03/22 06:22:04;;;;;;;53.00;29.13;;;;;;;;;;4971520;28;95073;-78
2022/03/22 06:24:30;;;;;;;48.88;27.23;;;;;;;;;;4973719;28;96019;-78
2022/03/22 06:26:57;;;;;;;60.20;30.35;;;;;;;;;;4973943;28;93056;-78
2022/03/22 06:29:23;;;;;;;49.53;29.00;;;;;;;;;;4977160;28;93027;-78
2022/03/22 06:31:50;;;;;;;68.88;31.63;;;;;;;;;;4972763;28;93702;-78
2022/03/22 06:34:16;;;;;;;55.53;30.35;;;;;;;;;;4974039;28;92978;-78
2022/03/22 06:36:42;;;;;;;53.67;29.42;;;;;;;;;;4967395;28;93431;-76
2022/03/22 06:39:09;;;;;;;58.08;30.00;;;;;;;;;;4955214;28;94302;-78
2022/03/22 06:41:35;;;;;;;56.30;28.88;;;;;;;;;;4956054;28;92477;-78
2022/03/22 06:44:01;;;;;;;60.55;30.60;;;;;;;;;;4955224;28;93025;-78
2022/03/22 06:46:27;;;;;;;52.70;29.08;;;;;;;;;;4965257;28;97213;-78
2022/03/22 06:48:54;;;;;;;52.55;29.77;;;;;;;;;;4976722;28;92786;-78
2022/03/22 06:51:25;;;;;;;51.63;28.75;;;;;;;;;;4974514;28;93426;-78
2022/03/22 06:53:51;;;;;;;49.40;28.02;;;;;;;;;;4973630;28;92382;-78
2022/03/22 06:56:17;;;;;;;50.22;29.70;;;;;;;;;;4974116;28;93259;-77
2022/03/22 06:58:44;;;;;;;53.05;29.10;;;;;;;;;;4973578;28;93525;-78
2022/03/22 07:01:10;;;;;;;51.50;29.08;;;;;;;;;;4973736;28;92419;-78
2022/03/22 07:03:42;;;;;;;55.15;30.75;;;;;;;;;;4974193;28;95557;-78
2022/03/22 07:06:09;;;;;;;55.53;31.05;;;;;;;;;;4973186;28;93392;-78
2022/03/22 07:08:36;;;;;;;52.73;30.10;;;;;;;;;;4934659;28;1098358;-78
2022/03/22 07:13:47;;;;;;;53.25;29.25;;;;;;;;;;4974892;28;92881;-78
2022/03/22 07:16:14;;;;;;;60.97;29.95;;;;;;;;;;4974580;28;93210;-78
2022/03/22 07:18:40;;;;;;;58.30;31.35;;;;;;;;;;4974052;28;93351;-76
2022/03/22 07:21:06;;;;;;;54.70;29.75;;;;;;;;;;4973483;28;92492;-78
2022/03/22 07:23:33;;;;;;;57.70;31.17;;;;;;;;;;4973762;28;94611;-78
2022/03/22 07:26:00;;;;;;;49.72;29.98;;;;;;;;;;4974128;28;93624;-78
2022/03/22 07:28:27;;;;;;;60.65;28.85;;;;;;;;;;4973935;28;91681;-78
2022/03/22 07:30:54;;;;;;;56.03;29.60;;;;;;;;;;4974305;28;92676;-78
2022/03/22 07:33:20;;;;;;;68.05;29.15;;;;;;;;;;4976681;28;92464;-78
2022/03/22 07:35:46;;;;;;;54.88;31.25;;;;;;;;;;4971993;28;94869;-78
2022/03/22 07:38:13;;;;;;;53.63;29.45;;;;;;;;;;4973327;28;93688;-77
2022/03/22 07:40:39;;;;;;;52.17;30.05;;;;;;;;;;4973772;28;92464;-78
2022/03/22 07:43:05;;;;;;;53.03;29.77;;;;;;;;;;4974112;28;93008;-78
2022/03/22 07:45:32;;;;;;;50.03;29.60;;;;;;;;;;4969268;28;93540;-78
2022/03/22 07:47:58;;;;;;;54.97;28.48;;;;;;;;;;4954873;28;92910;-78
2022/03/22 07:53:12;;;;;;;52.05;27.50;;;;;;;;;;4954411;28;92755;-78
2022/03/22 07:55:39;;;;;;;50.05;28.10;;;;;;;;;;4957590;28;92444;-78
2022/03/22 07:58:06;;;;;;;44.17;26.38;;;;;;;;;;4954484;28;93414;-78
2022/03/22 08:00:35;;;;;;;54.42;28.27;;;;;;;;;;4953494;28;94736;-78
2022/03/22 08:03:03;;;;;;;58.53;26.23;;;;;;;;;;4954386;28;95946;-79
2022/03/22 08:05:31;;;;;;;57.72;27.33;;;;;;;;;;4954097;28;93678;-78
2022/03/22 08:07:59;;;;;;;48.47;27.30;;;;;;;;;;4953793;28;92472;-78
2022/03/22 08:10:45;;;;;;;52.25;27.33;;;;;;;;;;4940112;28;92769;-78
2022/03/22 08:13:12;;;;;;;44.42;26.95;;;;;;;;;;4953059;28;93731;-79
2022/03/22 08:15:39;;;;;;;47.47;27.08;;;;;;;;;;4960149;28;92844;-79
2022/03/22 08:18:06;;;;;;;45.58;26.25;;;;;;;;;;4977403;28;93764;-79
2022/03/22 08:20:32;;;;;;;47.40;26.83;;;;;;;;;;4973737;28;92421;-79
2022/03/22 08:22:59;;;;;;;43.08;26.35;;;;;;;;;;4974139;28;92622;-79
2022/03/22 08:25:27;;;;;;;53.50;26.08;;;;;;;;;;4970517;28;96074;-78
2022/03/22 08:27:55;;;;;;;39.40;25.67;;;;;;;;;;4972218;28;92519;-78
2022/03/22 08:30:21;;;;;;;43.50;25.10;;;;;;;;;;4972349;28;93061;-79
2022/03/22 08:32:49;;;;;;;53.60;26.58;;;;;;;;;;4973106;28;94129;-79
2022/03/22 08:35:16;;;;;;;39.67;24.13;;;;;;;;;;4972400;28;92514;-79
2022/03/22 08:37:42;;;;;;;51.63;25.23;;;;;;;;;;4974186;28;93967;-79
2022/03/22 08:40:10;;;;;;;39.78;22.42;;;;;;;;;;4972015;28;93512;-79
2022/03/22 08:42:38;;;;;;;40.10;22.73;;;;;;;;;;4973632;28;93261;-79
2022/03/22 08:45:06;;;;;;;39.00;23.50;;;;;;;;;;4974365;28;93770;-77
2022/03/22 08:47:35;;;;;;;42.97;23.90;;;;;;;;;;4972406;28;92432;-79
2022/03/22 08:50:02;;;;;;;53.03;22.15;;;;;;;;;;4972482;28;95077;-79
2022/03/22 08:52:29;;;;;;;33.92;21.90;;;;;;;;;;4973654;28;93618;-79
2022/03/22 08:54:55;;;;;;;34.17;21.35;;;;;;;;;;4973242;28;92419;-79
2022/03/22 08:57:22;;;;;;;47.95;23.48;;;;;;;;;;4972000;28;93574;-79
2022/03/22 08:59:48;;;;;;;45.95;23.10;;;;;;;;;;4976075;28;92411;-79
2022/03/22 09:02:15;;;;;;;35.42;22.88;;;;;;;;;;4968080;28;93238;-80
2022/03/22 09:07:30;;;;;;;39.53;20.25;;;;;;;;;;4961826;28;91767;-80
2022/03/22 09:09:56;;;;;;;40.53;21.40;;;;;;;;;;4953239;28;92513;-79
2022/03/22 09:12:23;;;;;;;35.75;21.50;;;;;;;;;;4952939;28;93517;-79
2022/03/22 09:14:51;;;;;;;43.50;22.10;;;;;;;;;;4952514;28;95239;-79
2022/03/22 09:17:17;;;;;;;35.97;21.73;;;;;;;;;;4972707;28;94608;-80
2022/03/22 09:19:44;;;;;;;37.55;22.15;;;;;;;;;;4971398;28;93489;-80
2022/03/22 09:22:24;;;;;;;36.60;23.02;;;;;;;;;;4958978;28;92548;-80
2022/03/22 09:24:51;;;;;;;36.80;21.92;;;;;;;;;;4953072;28;94460;-81
2022/03/22 09:27:17;;;;;;;34.97;22.65;;;;;;;;;;4953327;28;92528;-80
2022/03/22 09:29:43;;;;;;;33.47;21.55;;;;;;;;;;4953307;28;93393;-81
2022/03/22 09:32:10;;;;;;;40.63;22.33;;;;;;;;;;4953783;28;92762;-81
2022/03/22 09:34:36;;;;;;;39.03;22.13;;;;;;;;;;4953520;28;92491;-81
2022/03/22 09:37:03;;;;;;;37.60;22.55;;;;;;;;;;4952728;28;93312;-79
2022/03/22 09:39:29;;;;;;;35.15;22.70;;;;;;;;;;4951109;28;96052;-79
2022/03/22 09:41:56;;;;;;;34.03;21.27;;;;;;;;;;4952947;28;92513;-80
2022/03/22 09:44:23;;;;;;;29.15;20.70;;;;;;;;;;4938413;28;93435;-80
2022/03/22 09:46:49;;;;;;;36.78;21.55;;;;;;;;;;4968394;28;92517;-81
2022/03/22 09:49:16;;;;;;;28.63;20.25;;;;;;;;;;4971982;28;96291;-80
2022/03/22 09:51:47;;;;;;;29.70;21.13;;;;;;;;;;4970942;28;93978;-80
2022/03/22 09:54:18;;;;;;;31.58;19.70;;;;;;;;;;4971778;28;92604;-81
2022/03/22 09:56:45;;;;;;;29.88;19.65;;;;;;;;;;4968198;28;93258;-81
2022/03/22 09:59:14;;;;;;;30.33;21.08;;;;;;;;;;4953311;28;94532;-81
2022/03/22 10:01:41;;;;;;;34.42;20.25;;;;;;;;;;4969958;28;92497;-80
2022/03/22 10:04:12;;;;;;;27.88;20.25;;;;;;;;;;4974646;28;94850;-81
2022/03/22 10:06:45;;;;;;;33.92;20.20;;;;;;;;;;4977612;28;94449;-80
2022/03/22 10:09:11;;;;;;;33.28;20.42;;;;;;;;;;4976049;28;93307;-80
2022/03/22 10:11:39;;;;;;;29.33;20.00;;;;;;;;;;4975239;28;93649;-80
2022/03/22 10:14:08;;;;;;;28.50;20.25;;;;;;;;;;4974107;28;92650;-80
2022/03/22 10:16:45;;;;;;;31.95;19.65;;;;;;;;;;4976348;28;93476;-80
2022/03/22 10:19:21;;;;;;;29.58;19.42;;;;;;;;;;4975583;28;93925;-80
2022/03/22 10:21:48;;;;;;;35.92;20.15;;;;;;;;;;4963057;28;92100;-82
2022/03/22 10:24:17;;;;;;;30.10;19.10;;;;;;;;;;4956203;28;93099;-81
2022/03/22 10:26:46;;;;;;;35.17;20.55;;;;;;;;;;4955566;28;93599;-82
2022/03/22 10:29:13;;;;;;;41.57;19.83;;;;;;;;;;4957245;28;95218;-82
2022/03/22 10:31:40;;;;;;;26.17;18.85;;;;;;;;;;4956147;28;93825;-81
2022/03/22 10:34:07;;;;;;;29.20;19.00;;;;;;;;;;4955970;28;92919;-80
2022/03/22 10:36:35;;;;;;;30.20;19.98;;;;;;;;;;4955351;28;93723;-82
2022/03/22 10:39:11;;;;;;;28.88;19.33;;;;;;;;;;4955704;28;94089;-82
2022/03/22 10:41:42;;;;;;;30.63;19.33;;;;;;;;;;4955830;28;93027;-82
2022/03/22 10:44:10;;;;;;;32.67;19.23;;;;;;;;;;4955255;28;95038;-81
2022/03/22 10:46:38;;;;;;;37.92;19.77;;;;;;;;;;4970065;28;93022;-82
2022/03/22 10:49:06;;;;;;;25.80;19.55;;;;;;;;;;4978151;28;92830;-82
2022/03/22 10:51:39;;;;;;;28.45;20.05;;;;;;;;;;4973746;28;94056;-81
2022/03/22 10:54:05;;;;;;;34.53;19.90;;;;;;;;;;4973235;28;95834;-82
2022/03/22 10:56:33;;;;;;;26.30;18.73;;;;;;;;;;4974144;28;96997;-82
2022/03/22 10:59:00;;;;;;;29.67;19.08;;;;;;;;;;4974199;28;95311;-82
2022/03/22 11:01:26;;;;;;;44.70;19.45;;;;;;;;;;4974156;28;93842;-82
2022/03/22 11:03:56;;;;;;;23.95;18.73;;;;;;;;;;4972400;28;94588;-81
2022/03/22 11:06:25;;;;;;;37.85;18.83;;;;;;;;;;4972867;28;95031;-81
2022/03/22 11:08:51;;;;;;;29.73;18.52;;;;;;;;;;4971613;28;94199;-81
2022/03/22 11:11:18;;;;;;;28.92;18.08;;;;;;;;;;4976089;28;96699;-81
2022/03/22 11:13:44;;;;;;;29.60;17.35;;;;;;;;;;4973275;28;94361;-82
2022/03/22 11:16:11;;;;;;;26.65;17.83;;;;;;;;;;4972737;28;95122;-82
2022/03/22 11:18:37;;;;;;;29.90;18.02;;;;;;;;;;4971116;28;96930;-82
2022/03/22 11:21:04;;;;;;;27.55;16.80;;;;;;;;;;4973170;28;94464;-82
2022/03/22 11:23:31;;;;;;;36.95;17.58;;;;;;;;;;4972305;28;95349;-81
2022/03/22 11:26:07;;;;;;;27.35;17.13;;;;;;;;;;4972593;28;95843;-81
2022/03/22 11:28:34;;;;;;;35.35;17.08;;;;;;;;;;4972421;28;94717;-82
2022/03/22 11:31:01;;;;;;;36.90;17.85;;;;;;;;;;4971556;28;94948;-82
2022/03/22 11:36:15;;;;;;;23.52;16.13;;;;;;;;;;4973700;28;94059;-82
2022/03/22 11:38:50;;;;;;;27.10;16.92;;;;;;;;;;4972428;28;95423;-82
2022/03/22 11:44:10;;;;;;;29.20;16.92;;;;;;;;;;4970945;28;97235;-82
2022/03/22 11:46:36;;;;;;;24.48;15.88;;;;;;;;;;4971985;28;95752;-82
2022/03/22 11:49:15;;;;;;;18.33;13.40;;;;;;;;;;4972086;28;95143;-82
2022/03/22 11:51:51;;;;;;;21.25;12.20;;;;;;;;;;4971229;28;95467;-82
2022/03/22 11:54:17;;;;;;;18.48;12.95;;;;;;;;;;4972563;28;95774;-82
2022/03/22 11:56:47;;;;;;;19.38;13.90;;;;;;;;;;4975850;28;95298;-82
2022/03/22 11:59:15;;;;;;;20.80;13.40;;;;;;;;;;4972550;28;95605;-82
2022/03/22 12:01:41;;;;;;;20.80;14.00;;;;;;;;;;4965083;28;93708;-82
2022/03/22 12:04:15;;;;;;;17.85;11.82;;;;;;;;;;4952698;28;94620;-79
2022/03/22 12:06:42;;;;;;;17.63;9.88;;;;;;;;;;4951510;28;97685;-82
2022/03/22 12:09:09;;;;;;;18.35;11.60;;;;;;;;;;4952013;28;97651;-82
2022/03/22 12:11:36;;;;;;;18.83;12.05;;;;;;;;;;4967624;28;97547;-81
2022/03/22 12:14:03;;;;;;;25.63;12.45;;;;;;;;;;4952748;28;94869;-82
2022/03/22 12:16:29;;;;;;;16.58;11.60;;;;;;;;;;4964768;28;94085;-82
2022/03/22 12:18:58;;;;;;;19.83;12.18;;;;;;;;;;4973838;28;94967;-82
2022/03/22 12:21:26;;;;;;;23.05;13.68;;;;;;;;;;4962745;28;93770;-83
2022/03/22 12:23:54;;;;;;;25.33;13.80;;;;;;;;;;4950450;28;94039;-81
2022/03/22 12:26:25;;;;;;;24.88;13.43;;;;;;;;;;4953137;28;94591;-82
2022/03/22 12:28:52;;;;;;;22.05;12.93;;;;;;;;;;4951991;28;93802;-82
2022/03/22 12:31:21;;;;;;;20.67;12.18;;;;;;;;;;4970548;28;95795;-81
2022/03/22 12:33:51;;;;;;;27.92;14.57;;;;;;;;;;4971392;28;97251;-82
2022/03/22 12:36:21;;;;;;;30.52;15.10;;;;;;;;;;4955675;28;93463;-81
2022/03/22 12:38:47;;;;;;;21.15;13.82;;;;;;;;;;4973064;28;95550;-82
2022/03/22 12:41:14;;;;;;;19.40;14.52;;;;;;;;;;4975615;28;94227;-81
2022/03/22 12:43:45;;;;;;;22.23;15.10;;;;;;;;;;4972647;28;94360;-78
2022/03/22 12:46:12;;;;;;;24.02;15.35;;;;;;;;;;4972576;28;95110;-80
2022/03/22 12:48:39;;;;;;;32.30;15.38;;;;;;;;;;4972881;28;93309;-81
2022/03/22 12:51:07;;;;;;;22.73;15.60;;;;;;;;;;4972979;28;94191;-82
2022/03/22 12:53:33;;;;;;;20.25;14.35;;;;;;;;;;4972605;28;94082;-81
2022/03/22 12:56:00;;;;;;;23.83;13.80;;;;;;;;;;4973173;28;93290;-81
2022/03/22 12:58:27;;;;;;;20.85;14.30;;;;;;;;;;4971952;28;95055;-80
2022/03/22 13:00:53;;;;;;;17.83;13.57;;;;;;;;;;4975622;28;93585;-79
2022/03/22 13:03:20;;;;;;;24.13;14.75;;;;;;;;;;4971903;28;93813;-81
2022/03/22 13:05:48;;;;;;;23.63;14.70;;;;;;;;;;4972439;28;93509;-80
2022/03/22 13:08:16;;;;;;;27.65;15.40;;;;;;;;;;4972898;28;92709;-80
2022/03/22 13:15:01;;;;;;;40.97;14.88;;;;;;;;;;4972889;28;93621;-80
2022/03/22 13:16:20;;;;;;;24.25;14.65;;;;;;;;;;4972404;28;91796;-79
2022/03/22 13:18:47;;;;;;;24.95;14.82;;;;;;;;;;4972873;28;92658;-79
2022/03/22 13:21:13;;;;;;;28.25;14.57;;;;;;;;;;4972913;28;93303;-79
2022/03/22 13:23:40;;;;;;;29.13;14.35;;;;;;;;;;4974311;28;94868;-79
2022/03/22 13:26:14;;;;;;;30.88;13.00;;;;;;;;;;4972847;28;93846;-79
2022/03/22 13:28:40;;;;;;;27.05;15.60;;;;;;;;;;4971300;28;92495;-75
2022/03/22 13:31:07;;;;;;;23.80;14.18;;;;;;;;;;4971411;28;93226;-79
2022/03/22 13:33:33;;;;;;;23.00;14.80;;;;;;;;;;4973127;28;93232;-79
2022/03/22 13:36:03;;;;;;;23.95;14.90;;;;;;;;;;4974543;28;92550;-79
2022/03/22 13:38:30;;;;;;;23.95;14.98;;;;;;;;;;4976774;28;93282;-79
2022/03/22 13:40:59;;;;;;;30.05;15.52;;;;;;;;;;4976924;28;92774;-79
2022/03/22 13:43:26;;;;;;;33.13;15.40;;;;;;;;;;4975150;28;92412;-79
2022/03/22 13:45:54;;;;;;;33.50;16.08;;;;;;;;;;4971051;28;93414;-79
2022/03/22 13:48:20;;;;;;;32.75;16.23;;;;;;;;;;4954994;28;94904;-79
2022/03/22 13:50:48;;;;;;;30.33;15.60;;;;;;;;;;4938898;28;95533;-78
2022/03/22 13:53:15;;;;;;;27.27;16.08;;;;;;;;;;4956497;28;93767;-79
2022/03/22 13:55:42;;;;;;;26.80;15.93;;;;;;;;;;4955839;28;92494;-78
2022/03/22 13:58:13;;;;;;;30.02;16.38;;;;;;;;;;4956049;28;93377;-77
2022/03/22 14:00:50;;;;;;;32.00;16.65;;;;;;;;;;4956144;28;94889;-79
2022/03/22 14:03:17;;;;;;;33.25;17.55;;;;;;;;;;4966243;28;92726;-78
2022/03/22 14:05:45;;;;;;;28.05;16.83;;;;;;;;;;4956708;28;93426;-79
2022/03/22 14:08:12;;;;;;;31.00;15.50;;;;;;;;;;4958699;28;93600;-79
2022/03/22 14:10:39;;;;;;;32.97;16.35;;;;;;;;;;4956447;28;95271;-79
2022/03/22 14:13:06;;;;;;;26.25;14.40;;;;;;;;;;4954591;28;97437;-78
2022/03/22 14:15:33;;;;;;;32.47;15.85;;;;;;;;;;4959043;28;92476;-78
2022/03/22 14:18:00;;;;;;;28.30;16.65;;;;;;;;;;4975622;28;93131;-78
2022/03/22 14:20:27;;;;;;;29.60;17.02;;;;;;;;;;4956318;28;93414;-78
2022/03/22 14:22:54;;;;;;;31.55;16.42;;;;;;;;;;4956154;28;93392;-76
2022/03/22 14:25:21;;;;;;;33.60;17.42;;;;;;;;;;4956408;28;93454;-78
2022/03/22 14:27:48;;;;;;;31.40;16.45;;;;;;;;;;4956077;28;93764;-78
2022/03/22 14:30:17;;;;;;;31.50;16.45;;;;;;;;;;4956823;28;91758;-78
2022/03/22 14:32:43;;;;;;;37.55;16.02;;;;;;;;;;4955470;28;92430;-78
2022/03/22 14:37:55;;;;;;;39.72;15.50;;;;;;;;;;4954251;28;95564;-78
2022/03/22 14:40:22;;;;;;;28.92;14.90;;;;;;;;;;4955494;28;93294;-78
2022/03/22 14:42:50;;;;;;;30.45;14.90;;;;;;;;;;4955240;28;92522;-78
2022/03/22 14:45:18;;;;;;;30.63;14.68;;;;;;;;;;4957551;28;93696;-78
2022/03/22 14:47:44;;;;;;;30.23;16.23;;;;;;;;;;4974450;28;93485;-78
2022/03/22 14:50:10;;;;;;;33.33;16.13;;;;;;;;;;4974689;28;92668;-78
2022/03/22 14:55:22;;;;;;;33.08;16.40;;;;;;;;;;4975662;28;92147;-78
2022/03/22 15:00:33;;;;;;;30.67;14.40;;;;;;;;;;4974347;28;93511;-78
2022/03/22 15:02:59;;;;;;;29.80;14.80;;;;;;;;;;4973490;28;95469;-78
2022/03/22 15:05:34;;;;;;;33.60;14.70;;;;;;;;;;4972686;28;95744;-78
2022/03/22 15:08:03;;;;;;;25.90;14.55;;;;;;;;;;4974078;28;93681;-78
2022/03/22 15:10:30;;;;;;;33.55;14.73;;;;;;;;;;4974581;28;92464;-77